Time;durP1;ratioP1;P1;durP2;ratioP2;P2;SDS_P1;SDS_P2;PMS_P1;PMS_P2;Temp;Humidity;BMP_temperature;BMP_pressure;BME280_temperature;BME280_humidity;BME280_pressure;Samples;Min_cycle;Max_cycle;Signal;HPM_P1;HPM_P2
2022/11/11 00:02:20;;;;;;;;;;;;;;;7.98;100.00;101288.72;4512983;31;33790;-81
2022/11/11 00:05:25;;;;;;;;;;;;;;;8.20;100.00;101279.72;4507853;31;34927;-81
2022/11/11 00:08:29;;;;;;;;;;;;;;;8.07;100.00;101283.66;4502023;31;36177;-81
2022/11/11 00:11:35;;;;;;;;;;;;;;;8.19;100.00;101283.53;4509601;31;34787;-80
2022/11/11 00:14:40;;;;;;;;;;;;;;;8.42;100.00;101293.38;4511060;31;33903;-81
2022/11/11 00:27:58;;;;;;;;;;;;;;;8.39;100.00;101304.81;4512311;31;33752;-82
2022/11/11 00:31:03;;;;;;;;;;;;;;;9.00;100.00;101309.00;4511085;31;33662;-81
2022/11/11 00:34:08;;;;;;;;;;;;;;;9.37;100.00;101302.75;4512079;31;35736;-82
2022/11/11 00:37:12;;;;;;;;;;;;;;;9.86;100.00;101307.97;4511044;31;34881;-81
2022/11/11 00:40:16;;;;;;;;;;;;;;;9.29;100.00;101300.50;4511052;31;34172;-81
2022/11/11 00:43:21;;;;;;;;;;;;;;;9.42;100.00;101301.94;4510972;31;34940;-81
2022/11/11 00:53:14;;;;;;;;;;;;;;;8.26;100.00;101306.00;4512114;31;33696;-81
2022/11/11 00:56:19;;;;;;;;;;;;;;;7.28;100.00;101311.16;4503228;31;34862;-81
2022/11/11 00:59:23;;;;;;;36.92;17.17;;;;;;;6.90;100.00;101304.53;4501749;31;35194;-81
2022/11/11 01:02:28;;;;;;;40.65;16.65;;;;;;;6.99;100.00;101308.50;4511226;31;35798;-81
2022/11/11 01:05:33;;;;;;;38.50;17.40;;;;;;;7.17;100.00;101302.84;4510407;31;33808;-81
2022/11/11 01:08:38;;;;;;;36.13;17.67;;;;;;;7.30;100.00;101303.56;4508416;31;34451;-80
2022/11/11 01:11:43;;;;;;;37.65;15.60;;;;;;;7.03;100.00;101296.06;4510573;31;35689;-81
2022/11/11 01:14:48;;;;;;;37.90;17.00;;;;;;;7.41;100.00;101294.47;4502879;31;34398;-82
2022/11/11 01:17:53;;;;;;;36.38;17.85;;;;;;;7.13;100.00;101298.94;4512113;31;33785;-82
2022/11/11 01:21:03;;;;;;;36.63;16.90;;;;;;;6.65;100.00;101294.84;4512714;31;34340;-82
2022/11/11 01:24:08;;;;;;;37.42;17.17;;;;;;;7.31;100.00;101294.31;4503068;31;35612;-82
2022/11/11 01:27:13;;;;;;;36.70;17.90;;;;;;;7.65;100.00;101303.28;4513490;31;35057;-81
2022/11/11 01:30:17;;;;;;;;;;;;;;;7.46;100.00;101301.91;4512076;31;34318;-81
2022/11/11 01:33:22;;;;;;;;;;;;;;;7.68;100.00;101310.12;4512857;31;35004;-81
2022/11/11 01:36:27;;;;;;;;;;;;;;;8.00;100.00;101300.22;4512701;31;36215;-81
2022/11/11 01:39:32;;;;;;;;;;;;;;;7.76;100.00;101307.81;4510915;31;34804;-81
2022/11/11 01:42:47;;;;;;;;;;;;;;;7.18;100.00;101304.47;4511758;31;34023;-81
2022/11/11 01:45:58;;;;;;;;;;;;;;;7.41;100.00;101308.13;4512686;31;34917;-81
2022/11/11 01:49:18;;;;;;;;;;;;;;;8.07;100.00;101309.03;4508117;31;35033;-81
2022/11/11 01:52:33;;;;;;;;;;;;;;;8.42;100.00;101302.38;4510592;31;34949;-81
2022/11/11 01:55:38;;;;;;;;;;;;;;;8.56;100.00;101309.09;4505306;31;34058;-82
2022/11/11 01:58:43;;;;;;;;;;;;;;;8.84;100.00;101307.19;4513043;31;33594;-81
2022/11/11 02:01:48;;;;;;;;;;;;;;;8.91;100.00;101301.53;4507712;31;34650;-81
2022/11/11 02:08:33;;;;;;;;;;;;;;;8.76;100.00;101294.00;4508103;31;35054;-81
2022/11/11 02:15:01;;;;;;;;;;;;;;;7.11;100.00;101298.34;4504681;31;36144;-80
2022/11/11 02:18:06;;;;;;;;;;;;;;;7.30;100.00;101293.50;4508386;31;34832;-81
2022/11/11 02:21:12;;;;;;;;;;;;;;;6.80;100.00;101297.00;4502241;31;34830;-81
2022/11/11 02:24:17;;;;;;;;;;;;;;;7.07;100.00;101305.38;4500861;31;34985;-81
2022/11/11 02:27:22;;;;;;;;;;;;;;;7.20;100.00;101305.06;4493392;31;36344;-81
2022/11/11 02:30:26;;;;;;;;;;;;;;;6.84;100.00;101305.53;4508093;31;34867;-81
2022/11/11 02:33:31;;;;;;;;;;;;;;;7.19;100.00;101308.84;4513027;31;33750;-80
2022/11/11 02:36:36;;;;;;;;;;;;;;;7.01;100.00;101306.38;4511518;31;34812;-81
2022/11/11 02:39:43;;;;;;;;;;;;;;;7.43;100.00;101308.69;4506172;31;34748;-82
2022/11/11 02:43:06;;;;;;;;;;;;;;;7.95;100.00;101313.81;4511587;31;34936;-81
2022/11/11 02:46:12;;;;;;;;;;;;;;;8.29;100.00;101327.34;4512541;31;34069;-81
2022/11/11 02:49:16;;;;;;;;;;;;;;;8.61;100.00;101326.66;4509770;31;34950;-81
2022/11/11 02:52:20;;;;;;;;;;;;;;;8.47;100.00;101326.22;4512273;31;35231;-81
2022/11/11 02:55:25;;;;;;;;;;;;;;;8.19;100.00;101328.03;4511177;31;34846;-81
2022/11/11 02:58:30;;;;;;;;;;;;;;;8.55;100.00;101331.22;4513131;31;34146;-81
2022/11/11 03:01:35;;;;;;;;;;;;;;;8.90;100.00;101328.03;4507720;31;34868;-81
2022/11/11 03:04:40;;;;;;;;;;;;;;;8.44;100.00;101335.75;4507951;31;36185;-81
2022/11/11 03:07:45;;;;;;;;;;;;;;;8.20;100.00;101337.06;4500702;31;34959;-81
2022/11/11 03:10:49;;;;;;;;;;;;;;;9.08;100.00;101340.53;4510972;31;35005;-82
2022/11/11 03:13:54;;;;;;;;;;;;;;;9.35;100.00;101339.66;4512936;31;34661;-81
2022/11/11 03:23:46;;;;;;;;;;;;;;;9.46;100.00;101352.31;4511928;31;34150;-81
2022/11/11 03:26:51;;;;;;;;;;;;;;;9.36;100.00;101349.50;4509790;31;34910;-81
2022/11/11 03:29:55;;;;;;;;;;;;;;;9.05;100.00;101362.06;4510303;31;36229;-82
2022/11/11 03:33:00;;;;;;;;;;;;;;;9.37;100.00;101364.84;4512494;31;32958;-81
2022/11/11 03:36:04;;;;;;;;;;;;;;;9.00;100.00;101371.88;4512026;31;34140;-81
2022/11/11 03:39:09;;;;;;;;;;;;;;;7.61;100.00;101371.16;4503423;31;34534;-80
2022/11/11 03:42:14;;;;;;;;;;;;;;;7.86;100.00;101380.81;4511814;31;36213;-82
2022/11/11 03:45:18;;;;;;;;;;;;;;;8.14;100.00;101384.47;4511429;31;35036;-81
2022/11/11 03:48:23;;;;;;;;;;;;;;;7.98;100.00;101381.53;4511076;31;34140;-81
2022/11/11 03:51:27;;;;;;;;;;;;;;;8.03;100.00;101384.34;4506033;31;34898;-81
2022/11/11 03:54:31;;;;;;;;;;;;;;;7.79;100.00;101383.72;4511897;31;36183;-81
2022/11/11 03:57:44;;;;;;;;;;;;;;;6.73;100.00;101383.50;4498612;31;34969;-81
2022/11/11 04:00:48;;;;;;;;;;;;;;;7.54;100.00;101386.88;4512115;31;34738;-81
2022/11/11 04:10:40;;;;;;;;;;;;;;;6.48;100.00;101395.53;4511008;31;34585;-81
2022/11/11 04:17:08;;;;;;;;;;;;;;;6.91;100.00;101393.37;4510726;31;35833;-81
2022/11/11 04:23:36;;;;;;;;;;;;;;;6.10;100.00;101401.53;4506995;31;34780;-81
2022/11/11 04:26:40;;;;;;;;;;;;;;;6.21;100.00;101400.69;4512822;31;34048;-82
2022/11/11 04:29:46;;;;;;;;;;;;;;;6.62;100.00;101403.44;4511622;31;34511;-82
2022/11/11 04:32:51;;;;;;;;;;;;;;;6.64;100.00;101407.59;4512145;31;34824;-81
2022/11/11 04:35:55;;;;;;;;;;;;;;;6.09;100.00;101408.06;4512107;31;34992;-82
2022/11/11 04:42:23;;;;;;;;;;;;;;;6.54;100.00;101410.09;4511794;31;34978;-82
2022/11/11 04:45:30;;;;;;;;;;;;;;;5.81;100.00;101415.00;4512178;31;34917;-81
2022/11/11 04:48:35;;;;;;;;;;;;;;;5.36;100.00;101410.09;4511528;31;34783;-81
2022/11/11 04:58:30;;;;;;;;;;;;;;;5.28;100.00;101425.91;4511326;31;36142;-80
2022/11/11 05:04:58;;;;;;;;;;;;;;;5.00;100.00;101426.50;4509336;31;34766;-80
2022/11/11 05:11:27;;;;;;;;;;;;;;;5.17;100.00;101422.91;4511696;31;35592;-80
2022/11/11 05:21:22;;;;;;;;;;;;;;;5.25;100.00;101429.91;4511579;31;34515;-81
2022/11/11 05:27:50;;;;;;;;;;;;;;;5.09;100.00;101430.56;4511586;31;34882;-81
2022/11/11 05:30:54;;;;;;;;;;;;;;;5.20;100.00;101429.78;4511778;31;34161;-81
2022/11/11 05:33:59;;;;;;;;;;;;;;;5.06;100.00;101436.44;4510776;31;35413;-80
2022/11/11 05:37:04;;;;;;;;;;;;;;;5.17;100.00;101436.50;4510822;31;35179;-80
2022/11/11 05:40:09;;;;;;;;;;;;;;;5.28;100.00;101432.16;4511597;31;35775;-80
2022/11/11 05:43:13;;;;;;;;;;;;;;;5.44;100.00;101435.28;4502602;31;33680;-80
2022/11/11 05:46:18;;;;;;;;;;;;;;;5.71;100.00;101432.97;4511225;31;34418;-80
2022/11/11 05:49:23;;;;;;;;;;;;;;;5.41;100.00;101442.03;4510385;31;35356;-80
2022/11/11 05:52:28;;;;;;;;;;;;;;;5.80;100.00;101437.81;4496695;31;34315;-80
2022/11/11 05:55:32;;;;;;;;;;;;;;;5.48;100.00;101447.34;4492134;31;34967;-81
2022/11/11 05:58:37;;;;;;;;;;;;;;;5.92;100.00;101448.72;4514002;31;35436;-81
2022/11/11 06:01:41;;;;;;;;;;;;;;;5.60;100.00;101453.63;4513916;31;35264;-81
2022/11/11 06:04:46;;;;;;;;;;;;;;;5.65;100.00;101445.59;4508620;31;34826;-81
2022/11/11 06:07:53;;;;;;;;;;;;;;;6.29;100.00;101452.06;4512188;31;33773;-81
2022/11/11 06:10:58;;;;;;;;;;;;;;;6.95;100.00;101454.53;4512906;31;35383;-81
2022/11/11 06:14:02;;;;;;;;;;;;;;;7.05;100.00;101454.69;4513639;31;36112;-81
2022/11/11 06:17:07;;;;;;;;;;;;;;;6.54;100.00;101464.56;4502654;31;34536;-80
2022/11/11 06:20:11;;;;;;;;;;;;;;;6.19;100.00;101462.72;4513080;31;34166;-81
2022/11/11 06:23:15;;;;;;;;;;;;;;;6.14;100.00;101462.59;4501501;31;34932;-81
2022/11/11 06:26:20;;;;;;;;;;;;;;;6.65;100.00;101469.16;4512162;31;35133;-81
2022/11/11 06:29:25;;;;;;;;;;;;;;;6.61;100.00;101467.19;4512963;31;33586;-81
2022/11/11 06:32:29;;;;;;;;;;;;;;;6.62;100.00;101475.09;4514115;31;34942;-81
2022/11/11 06:35:37;;;;;;;;;;;;;;;6.01;100.00;101482.72;4513511;31;35851;-81
2022/11/11 06:38:41;;;;;;;;;;;;;;;5.77;100.00;101491.84;4512316;31;35219;-81
2022/11/11 06:41:46;;;;;;;;;;;;;;;5.86;100.00;101488.59;4507488;31;33526;-81
2022/11/11 06:44:50;;;;;;;;;;;;;;;5.71;100.00;101488.19;4500901;31;34040;-81
2022/11/11 06:47:54;;;;;;;;;;;;;;;5.93;100.00;101484.91;4513098;31;34633;-81
2022/11/11 06:51:03;;;;;;;;;;;;;;;6.72;100.00;101493.56;4513087;31;36137;-81
2022/11/11 06:54:07;;;;;;;;;;;;;;;6.90;100.00;101484.37;4509301;31;36262;-81
2022/11/11 06:57:12;;;;;;;;;;;;;;;6.20;100.00;101477.97;4507149;31;33679;-81
2022/11/11 07:00:16;;;;;;;;;;;;;;;6.12;100.00;101489.22;4512280;31;35743;-80
2022/11/11 07:03:21;;;;;;;;;;;;;;;6.28;100.00;101487.69;4500789;31;34764;-80
2022/11/11 07:06:29;;;;;;;;;;;;;;;6.12;100.00;101500.12;4513118;31;35691;-81
2022/11/11 07:09:33;;;;;;;;;;;;;;;6.69;100.00;101521.28;4512980;31;35001;-81
2022/11/11 07:12:39;;;;;;;;;;;;;;;6.26;100.00;101522.47;4513220;31;35752;-81
2022/11/11 07:15:44;;;;;;;;;;;;;;;6.24;100.00;101530.88;4511761;31;35157;-80
2022/11/11 07:18:49;;;;;;;;;;;;;;;6.29;100.00;101527.47;4507925;31;35673;-81
2022/11/11 07:21:53;;;;;;;;;;;;;;;6.06;100.00;101536.41;4513253;31;33930;-81
2022/11/11 07:24:58;;;;;;;;;;;;;;;6.33;100.00;101539.53;4502907;31;34402;-81
2022/11/11 07:28:02;;;;;;;;;;;;;;;6.29;100.00;101543.81;4512625;31;34868;-80
2022/11/11 07:31:07;;;;;;;;;;;;;;;6.15;100.00;101559.53;4496026;31;34837;-80
2022/11/11 07:34:11;;;;;;;;;;;;;;;6.07;100.00;101559.84;4512086;31;34920;-79
2022/11/11 07:37:15;;;;;;;;;;;;;;;6.16;100.00;101560.34;4510377;31;34959;-80
2022/11/11 07:40:20;;;;;;;;;;;;;;;6.28;100.00;101566.63;4511747;31;34934;-80
2022/11/11 07:43:25;;;;;;;;;;;;;;;6.68;100.00;101561.28;4511018;31;35755;-83
2022/11/11 07:46:29;;;;;;;;;;;;;;;6.62;100.00;101564.97;4512885;31;34074;-83
2022/11/11 07:49:33;;;;;;;;;;;;;;;7.06;100.00;101573.59;4509597;31;34564;-80
2022/11/11 07:52:38;;;;;;;;;;;;;;;7.30;100.00;101576.25;4512691;31;34608;-80
2022/11/11 07:55:43;;;;;;;;;;;;;;;7.41;100.00;101578.94;4506238;31;35782;-80
2022/11/11 07:58:48;;;;;;;;;;;;;;;7.55;100.00;101579.47;4503942;31;34707;-80
2022/11/11 08:01:52;;;;;;;;;;;;;;;7.32;100.00;101576.84;4497094;31;33577;-81
2022/11/11 08:04:57;;;;;;;;;;;;;;;8.05;100.00;101576.03;4497774;31;35550;-81
2022/11/11 08:08:04;;;;;;;;;;;;;;;8.26;100.00;101568.19;4498640;31;34621;-80
2022/11/11 08:11:10;;;;;;;;;;;;;;;8.45;100.00;101574.22;4497881;31;34833;-80
2022/11/11 08:14:14;;;;;;;;;;;;;;;7.93;100.00;101585.34;4498315;31;34464;-81
2022/11/11 08:17:18;;;;;;;;;;;;;;;8.35;100.00;101577.59;4506009;31;34695;-81
2022/11/11 08:20:22;;;;;;;;;;;;;;;8.30;100.00;101575.59;4507372;31;32930;-81
2022/11/11 08:23:33;;;;;;;;;;;;;;;8.90;100.00;101575.97;4504863;31;34141;-81
2022/11/11 08:26:58;;;;;;;;;;;;;;;9.01;100.00;101564.09;4505884;31;34486;-81
2022/11/11 08:30:03;;;;;;;;;;;;;;;8.70;100.00;101574.59;4503331;31;35230;-80
2022/11/11 08:33:08;;;;;;;;;;;;;;;8.68;100.00;101567.72;4497398;31;35359;-80
2022/11/11 08:36:32;;;;;;;;;;;;;;;9.03;100.00;101577.53;4501705;31;34750;-80
2022/11/11 08:39:37;;;;;;;;;;;;;;;8.93;100.00;101595.44;4497897;31;35753;-80
2022/11/11 08:42:41;;;;;;;;;;;;;;;8.75;100.00;101591.09;4500900;31;35012;-80
2022/11/11 08:45:46;;;;;;;;;;;;;;;8.44;100.00;101589.78;4499438;31;35338;-81
2022/11/11 08:48:50;;;;;;;;;;;;;;;8.78;100.00;101576.09;4495169;31;34737;-81
2022/11/11 08:51:54;;;;;;;;;;;;;;;8.95;100.00;101567.84;4504475;31;35532;-81
2022/11/11 08:54:59;;;;;;;;;;;;;;;9.13;100.00;101583.13;4509700;31;35093;-81
2022/11/11 08:58:05;;;;;;;;;;;;;;;9.35;100.00;101583.94;4512678;31;35075;-81
2022/11/11 09:01:13;;;;;;;;;;;;;;;9.34;100.00;101578.75;4504893;31;34169;-82
2022/11/11 09:04:18;;;;;;;;;;;;;;;9.41;100.00;101584.84;4507167;31;35868;-81
2022/11/11 09:07:42;;;;;;;;;;;;;;;9.39;100.00;101587.00;4497493;31;35237;-81
2022/11/11 09:10:47;;;;;;;;;;;;;;;9.25;100.00;101592.06;4500244;31;35126;-79
2022/11/11 09:13:51;;;;;;;;;;;;;;;9.44;100.00;101596.09;4502861;31;34204;-82
2022/11/11 09:16:56;;;;;;;;;;;;;;;9.54;100.00;101589.09;4503884;31;34896;-81
2022/11/11 09:20:00;;;;;;;;;;;;;;;9.68;100.00;101587.62;4504861;31;35504;-81
2022/11/11 09:23:05;;;;;;;;;;;;;;;9.93;100.00;101597.97;4497061;31;35692;-81
2022/11/11 09:26:09;;;;;;;;;;;;;;;9.99;100.00;101598.84;4495641;31;32262;-81
2022/11/11 09:29:14;;;;;;;;;;;;;;;9.28;100.00;101594.28;4506043;31;35843;-82
2022/11/11 09:32:19;;;;;;;;;;;;;;;10.05;100.00;101590.44;4502165;31;36487;-81
2022/11/11 09:35:23;;;;;;;20.92;11.93;;;;;;;9.94;100.00;101596.09;4504545;31;34563;-81
2022/11/11 09:38:28;;;;;;;24.20;12.57;;;;;;;10.03;100.00;101597.28;4498890;31;34004;-81
2022/11/11 09:41:58;;;;;;;25.48;12.80;;;;;;;9.91;100.00;101597.44;4500020;31;34345;-81
2022/11/11 09:45:28;;;;;;;23.42;13.57;;;;;;;10.61;100.00;101584.59;4497805;31;34629;-81
2022/11/11 09:49:11;;;;;;;22.58;12.02;;;;;;;10.22;100.00;101579.37;4502971;31;34458;-82
2022/11/11 09:52:42;;;;;;;28.55;18.77;;;;;;;9.91;100.00;101579.09;4505808;31;34300;-81
2022/11/11 09:56:06;;;;;;;26.80;14.90;;;;;;;10.07;100.00;101584.69;4502064;31;33292;-82
2022/11/11 09:59:46;;;;;;;24.52;16.70;;;;;;;10.27;100.00;101576.69;4510667;31;34997;-81
2022/11/11 10:02:56;;;;;;;;;;;;;;;10.18;100.00;101578.22;4509432;31;34323;-82
2022/11/11 10:06:15;;;;;;;;;;;;;;;10.92;100.00;101571.09;4506858;31;34040;-82
2022/11/11 10:09:40;;;;;;;25.90;14.75;;;;;;;11.05;100.00;101562.41;4505726;31;35658;-82
2022/11/11 10:13:12;;;;;;;24.33;13.13;;;;;;;11.18;100.00;101567.38;4504417;31;33830;-81
2022/11/11 10:16:23;;;;;;;23.30;12.65;;;;;;;11.66;100.00;101570.00;4505423;31;35364;-82
2022/11/11 10:19:33;;;;;;;24.17;13.47;;;;;;;11.45;100.00;101569.13;4510706;31;33758;-82
2022/11/11 10:22:40;;;;;;;22.52;13.52;;;;;;;11.22;100.00;101564.94;4495402;31;35317;-82
2022/11/11 10:25:52;;;;;;;27.30;12.93;;;;;;;11.04;100.00;101560.72;4504355;31;33958;-82
2022/11/11 10:28:56;;;;;;;;;;;;;;;11.15;100.00;101556.94;4512498;31;35489;-82
2022/11/11 10:32:04;;;;;;;22.45;12.55;;;;;;;11.09;100.00;101555.25;4509843;31;32633;-82
2022/11/11 10:35:30;;;;;;;22.90;13.80;;;;;;;11.69;100.00;101551.06;4504470;31;34591;-80
2022/11/11 10:38:46;;;;;;;26.62;12.77;;;;;;;10.45;100.00;101547.25;4503149;31;34887;-81
2022/11/11 10:41:51;;;;;;;22.40;13.07;;;;;;;10.35;100.00;101540.56;4506980;31;34652;-81
2022/11/11 10:44:59;;;;;;;20.27;11.93;;;;;;;10.85;100.00;101543.91;4506160;31;34281;-81
2022/11/11 10:48:11;;;;;;;21.52;11.55;;;;;;;11.06;100.00;101544.00;4510451;31;33746;-80
2022/11/11 10:51:16;;;;;;;21.27;14.63;;;;;;;11.03;100.00;101545.37;4512550;31;34866;-79
2022/11/11 10:54:28;;;;;;;20.40;12.55;;;;;;;10.83;100.00;101556.25;4508002;31;35482;-82
2022/11/11 10:57:37;;;;;;;21.15;11.43;;;;;;;11.47;100.00;101566.94;4500485;31;33697;-81
2022/11/11 11:00:45;;;;;;;23.85;13.48;;;;;;;11.19;100.00;101566.28;4512889;31;34613;-82
2022/11/11 11:04:19;;;;;;;23.87;14.20;;;;;;;11.57;100.00;101550.50;4497667;31;34903;-82
2022/11/11 11:07:28;;;;;;;23.67;13.18;;;;;;;11.08;100.00;101559.13;4506672;31;34937;-82
2022/11/11 11:10:40;;;;;;;24.77;13.07;;;;;;;11.35;100.00;101555.37;4506657;31;33872;-82
2022/11/11 11:13:50;;;;;;;23.25;12.40;;;;;;;11.81;100.00;101544.47;4502183;31;34660;-81
2022/11/11 11:16:57;;;;;;;22.58;12.05;;;;;;;11.73;100.00;101529.41;4505908;31;34864;-83
2022/11/11 11:20:14;;;;;;;23.77;12.50;;;;;;;11.70;100.00;101525.28;4505005;31;33607;-82
2022/11/11 11:23:39;;;;;;;21.73;11.95;;;;;;;11.74;100.00;101527.47;4508530;31;34325;-82
2022/11/11 11:26:46;;;;;;;29.15;13.00;;;;;;;11.74;100.00;101524.72;4498575;31;35632;-82
2022/11/11 11:29:50;;;;;;;23.30;12.65;;;;;;;11.64;100.00;101514.53;4506318;31;34894;-82
2022/11/11 11:33:00;;;;;;;22.37;11.27;;;;;;;11.53;100.00;101516.44;4510483;31;34350;-81
2022/11/11 11:36:16;;;;;;;25.42;14.07;;;;;;;12.17;100.00;101512.41;4504529;31;34081;-82
2022/11/11 11:39:38;;;;;;;24.30;12.93;;;;;;;11.67;100.00;101517.56;4503103;31;237457;-81
2022/11/11 11:42:43;;;;;;;22.00;13.30;;;;;;;11.93;100.00;101503.91;4510478;31;35993;-81
2022/11/11 11:45:54;;;;;;;25.42;13.15;;;;;;;11.47;100.00;101512.88;4509119;31;34663;-82
2022/11/11 11:49:18;;;;;;;;;;;;;;;11.80;100.00;101515.37;4506706;31;34945;-81
2022/11/11 11:52:32;;;;;;;26.27;13.48;;;;;;;11.59;100.00;101520.03;4504854;31;35755;-82
2022/11/11 11:55:42;;;;;;;27.23;14.93;;;;;;;11.98;100.00;101522.28;4511072;31;35999;-82
2022/11/11 11:58:59;;;;;;;24.30;14.60;;;;;;;11.60;100.00;101522.50;4506786;31;36987;-82
2022/11/11 12:02:03;;;;;;;30.02;16.23;;;;;;;11.68;100.00;101524.72;4512161;31;35161;-82
2022/11/11 12:05:44;;;;;;;28.42;14.05;;;;;;;11.78;100.00;101523.06;4512709;31;34323;-82
2022/11/11 12:09:12;;;;;;;27.02;15.63;;;;;;;12.22;100.00;101525.31;4468039;31;35733;-83
2022/11/11 12:12:32;;;;;;;29.02;15.60;;;;;;;12.10;100.00;101526.41;4512520;31;34576;-79
2022/11/11 12:15:41;;;;;;;27.87;14.43;;;;;;;12.19;100.00;101528.63;4512498;31;34183;-82
2022/11/11 12:19:16;;;;;;;24.92;13.90;;;;;;;12.41;100.00;101534.66;4508448;31;33577;-84
2022/11/11 12:22:33;;;;;;;22.73;14.63;;;;;;;12.57;100.00;101528.00;4499658;31;35378;-82
2022/11/11 12:25:51;;;;;;;22.60;11.03;;;;;;;12.29;100.00;101523.09;4495403;31;35411;-82
2022/11/11 12:29:26;;;;;;;21.02;10.45;;;;;;;11.97;100.00;101515.97;4498580;31;33719;-85
2022/11/11 12:32:45;;;;;;;20.90;10.93;;;;;;;12.34;100.00;101514.84;4499276;31;34511;-84
2022/11/11 12:36:04;;;;;;;18.55;9.82;;;;;;;12.32;100.00;101520.66;4499892;31;35839;-84
2022/11/11 12:39:47;;;;;;;18.98;10.10;;;;;;;12.35;100.00;101532.97;4496168;31;34187;-84
2022/11/11 12:43:17;;;;;;;15.45;8.32;;;;;;;12.46;100.00;101537.38;4495025;31;32721;-84
2022/11/11 12:46:47;;;;;;;11.73;7.05;;;;;;;12.53;100.00;101535.16;4492018;31;34848;-83
2022/11/11 12:50:19;;;;;;;15.55;6.40;;;;;;;12.64;100.00;101527.72;4490278;31;35041;-84
2022/11/11 12:53:55;;;;;;;12.50;6.93;;;;;;;12.84;98.96;101518.59;4493370;31;34274;-83
2022/11/11 12:57:12;;;;;;;15.80;6.18;;;;;;;12.74;97.44;101515.88;4495055;31;34242;-84
2022/11/11 13:00:21;;;;;;;12.13;5.80;;;;;;;12.97;97.41;101520.72;4494498;31;35168;-84
2022/11/11 13:03:45;;;;;;;12.32;5.20;;;;;;;12.68;97.69;101530.75;4496063;31;35882;-83
2022/11/11 13:07:26;;;;;;;13.62;5.53;;;;;;;12.67;95.65;101538.16;4497146;31;34277;-83
2022/11/11 13:10:44;;;;;;;10.15;4.95;;;;;;;12.32;95.86;101526.13;4496251;31;34122;-83
2022/11/11 13:14:20;;;;;;;12.43;4.87;;;;;;;12.36;97.17;101513.47;4497667;31;34634;-84
2022/11/11 13:17:25;;;;;;;12.27;5.15;;;;;;;12.67;96.70;101505.16;4498270;31;34698;-83
2022/11/11 13:20:43;;;;;;;11.82;5.22;;;;;;;12.98;93.68;101497.63;4497056;31;33200;-83
2022/11/11 13:23:48;;;;;;;15.55;6.45;;;;;;;12.65;96.11;101493.63;4499420;31;33519;-84
2022/11/11 13:27:01;;;;;;;12.82;6.10;;;;;;;12.43;97.92;101490.38;4498144;31;33271;-84
2022/11/11 13:30:25;;;;;;;11.90;6.03;;;;;;;12.67;98.53;101504.34;4495576;31;34497;-83
2022/11/11 13:33:40;;;;;;;10.63;5.60;;;;;;;12.62;98.48;101502.44;4495313;31;34369;-84
2022/11/11 13:36:53;;;;;;;13.52;7.18;;;;;;;12.26;99.88;101512.66;4497486;31;32716;-82
2022/11/11 13:40:06;;;;;;;12.27;6.20;;;;;;;12.36;98.42;101509.91;4486734;31;35660;-85
2022/11/11 13:43:41;;;;;;;11.25;6.07;;;;;;;12.49;98.81;101503.00;4498597;31;37564;-84
2022/11/11 13:46:46;;;;;;;15.13;7.60;;;;;;;12.70;97.82;101499.09;4486392;31;34710;-84
2022/11/11 13:49:54;;;;;;;;;;;;;;;11.96;100.00;101497.84;4497454;31;35212;-84
2022/11/11 13:53:00;;;;;;;12.65;7.25;;;;;;;11.93;100.00;101488.22;4498620;31;35350;-83
2022/11/11 13:56:06;;;;;;;14.00;7.05;;;;;;;12.15;100.00;101487.97;4495284;31;33860;-85
2022/11/11 13:59:20;;;;;;;21.30;7.47;;;;;;;12.70;100.00;101490.03;4497915;31;34594;-85
2022/11/11 14:02:27;;;;;;;;;;;;;;;11.93;100.00;101492.91;4497794;31;33823;-84
2022/11/11 14:05:31;;;;;;;;;;;;;;;11.75;100.00;101485.16;4498085;31;34329;-84
2022/11/11 14:08:44;;;;;;;;;;;;;;;11.56;100.00;101491.19;4496454;31;35031;-85
2022/11/11 14:11:49;;;;;;;;;;;;;;;11.83;100.00;101490.13;4498237;31;35387;-85
2022/11/11 14:14:54;;;;;;;;;;;;;;;11.85;100.00;101486.03;4497764;31;33463;-85
2022/11/11 14:17:59;;;;;;;;;;;;;;;11.49;100.00;101485.13;4495459;31;36076;-85
2022/11/11 14:21:03;;;;;;;;;;;;;;;11.59;100.00;101484.34;4499208;31;35087;-85
2022/11/11 14:24:08;;;;;;;;;;;;;;;11.81;100.00;101489.56;4501404;31;36017;-84
2022/11/11 14:27:12;;;;;;;;;;;;;;;11.54;100.00;101489.81;4493842;31;35408;-85
2022/11/11 14:30:27;;;;;;;;;;;;;;;11.47;100.00;101479.12;4498077;31;35662;-84
2022/11/11 14:33:41;;;;;;;;;;;;;;;11.57;100.00;101473.63;4495102;31;35159;-84
2022/11/11 14:36:48;;;;;;;;;;;;;;;11.34;100.00;101458.50;4497056;31;35553;-83
2022/11/11 14:39:55;;;;;;;;;;;;;;;10.93;100.00;101454.81;4493086;31;34757;-82
2022/11/11 14:42:59;;;;;;;;;;;;;;;11.04;100.00;101453.75;4494755;31;35583;-82
2022/11/11 14:46:08;;;;;;;;;;;;;;;11.52;100.00;101453.56;4491233;31;34817;-83
2022/11/11 14:49:37;;;;;;;;;;;;;;;11.32;100.00;101451.63;4495262;31;34421;-83
2022/11/11 14:52:41;;;;;;;;;;;;;;;10.67;100.00;101457.47;4509506;31;34134;-83
2022/11/11 14:55:53;;;;;;;;;;;;;;;10.65;100.00;101451.41;4499478;31;34290;-75
2022/11/11 14:58:59;;;;;;;;;;;;;;;10.89;100.00;101451.78;4509231;31;36246;-75
2022/11/11 15:02:03;;;;;;;;;;;;;;;10.47;100.00;101460.94;4512494;31;34946;-76
2022/11/11 15:05:11;;;;;;;;;;;;;;;10.62;100.00;101462.94;4509082;31;34915;-74
2022/11/11 15:08:15;;;;;;;;;;;;;;;10.81;100.00;101463.25;4513776;31;35121;-74
2022/11/11 15:11:38;;;;;;;;;;;;;;;11.04;100.00;101456.50;4515885;31;34965;-74
2022/11/11 15:15:03;;;;;;;;;;;;;;;10.54;100.00;101452.47;4515715;31;35810;-74
2022/11/11 15:18:18;;;;;;;;;;;;;;;11.00;100.00;101447.97;4501719;31;35027;-74
2022/11/11 15:21:36;;;;;;;;;;;;;;;10.95;100.00;101460.84;4505292;31;34936;-75
2022/11/11 15:24:43;;;;;;;;;;;;;;;10.99;100.00;101464.72;4516541;31;35255;-74
2022/11/11 15:27:51;;;;;;;;;;;;;;;10.58;100.00;101468.09;4515585;31;34914;-75
2022/11/11 15:31:02;;;;;;;;;;;;;;;10.09;100.00;101475.72;4509733;31;34030;-75
2022/11/11 15:34:22;;;;;;;;;;;;;;;10.20;100.00;101471.97;4511228;31;35891;-74
2022/11/11 15:37:26;;;;;;;;;;;;;;;9.80;100.00;101462.34;4514908;31;35414;-75
2022/11/11 15:40:40;;;;;;;;;;;;;;;9.70;100.00;101467.72;4509653;31;33792;-74
2022/11/11 15:43:45;;;;;;;;;;;;;;;9.72;100.00;101471.03;4510108;31;35044;-74
2022/11/11 15:46:50;;;;;;;;;;;;;;;9.62;100.00;101466.31;4508953;31;35788;-74
2022/11/11 15:49:54;;;;;;;;;;;;;;;9.54;100.00;101476.91;4515135;31;35278;-74
2022/11/11 15:52:59;;;;;;;;;;;;;;;10.19;100.00;101481.28;4508052;31;35881;-74
2022/11/11 15:56:11;;;;;;;;;;;;;;;9.65;100.00;101478.66;4514490;31;34922;-74
2022/11/11 15:59:23;;;;;;;;;;;;;;;9.62;100.00;101459.97;4506895;31;34614;-74
2022/11/11 16:02:29;;;;;;;;;;;;;;;9.55;100.00;101473.06;4511459;31;33654;-74
2022/11/11 16:05:33;;;;;;;;;;;;;;;9.97;100.00;101475.91;4516052;31;35668;-74
2022/11/11 16:08:44;;;;;;;;;;;;;;;9.74;100.00;101473.53;4510924;31;34258;-74
2022/11/11 16:11:49;;;;;;;;;;;;;;;10.19;100.00;101483.16;4506437;31;34873;-74
2022/11/11 16:14:53;;;;;;;;;;;;;;;10.76;100.00;101486.03;4511242;31;35244;-74
2022/11/11 16:17:59;;;;;;;;;;;;;;;10.80;100.00;101492.59;4510584;31;35666;-74
2022/11/11 16:21:13;;;;;;;;;;;;;;;11.45;100.00;101489.53;4510009;31;34141;-74
2022/11/11 16:24:21;;;;;;;;;;;;;;;11.35;100.00;101481.28;4516191;31;34643;-75
2022/11/11 16:27:29;;;;;;;;;;;;;;;11.16;100.00;101487.28;4512594;31;35123;-75
2022/11/11 16:30:35;;;;;;;;;;;;;;;11.32;100.00;101485.38;4510566;31;35867;-75
2022/11/11 16:33:39;;;;;;;;;;;;;;;11.63;100.00;101483.50;4512675;31;34870;-74
2022/11/11 16:37:02;;;;;;;;;;;;;;;11.68;100.00;101490.94;4511060;31;35826;-74
2022/11/11 16:40:26;;;;;;;;;;;;;;;11.66;100.00;101487.63;4513940;31;34868;-74
2022/11/11 16:43:31;;;;;;;;;;;;;;;11.18;100.00;101487.81;4513055;31;35430;-73
2022/11/11 16:46:38;;;;;;;;;;;;;;;11.33;100.00;101478.81;4506583;31;33870;-73